createdAt,value
2022-08-31T00:01:57.979Z,2.5
2022-08-31T00:02:57.913Z,1.5
2022-08-31T00:03:57.944Z,1.9
2022-08-31T00:04:48.778Z,1.3
2022-08-31T00:05:48.633Z,0.6
2022-08-31T00:06:53.866Z,1.6
2022-08-31T00:07:48.694Z,1.5
2022-08-31T00:08:48.702Z,1.0
2022-08-31T00:09:48.823Z,1.3
2022-08-31T00:10:49.817Z,1.3
2022-08-31T00:11:48.671Z,1.0
2022-08-31T00:12:50.137Z,0.3
2022-08-31T00:13:48.577Z,0.6
2022-08-31T00:14:49.293Z,1.2
2022-08-31T00:15:48.975Z,0.5
2022-08-31T00:16:48.815Z,4.8
2022-08-31T00:17:48.892Z,7.1
2022-08-31T00:18:52.792Z,1.1
2022-08-31T00:19:48.583Z,0.9
2022-08-31T00:21:50.059Z,1.6
2022-08-31T00:22:48.619Z,2.2
2022-08-31T00:23:48.809Z,1.6
2022-08-31T00:24:48.595Z,1.6
2022-08-31T00:25:50.144Z,0.9
2022-08-31T00:26:48.791Z,0.8
2022-08-31T00:27:48.633Z,2.0
2022-08-31T00:28:49.222Z,1.3
2022-08-31T00:29:48.867Z,2.2
2022-08-31T00:30:48.724Z,2.2
2022-08-31T00:31:48.622Z,1.5
2022-08-31T00:32:48.646Z,0.8
2022-08-31T00:33:52.619Z,1.7
2022-08-31T00:34:48.628Z,0.7
2022-08-31T00:35:48.855Z,1.6
2022-08-31T00:36:48.635Z,1.9
2022-08-31T00:37:48.653Z,2.7
2022-08-31T00:38:49.656Z,1.5
2022-08-31T00:39:48.628Z,2.3
2022-08-31T00:40:49.599Z,1.5
2022-08-31T00:42:48.715Z,1.0
2022-08-31T00:43:52.678Z,1.1
2022-08-31T00:44:48.606Z,1.7
2022-08-31T00:45:48.662Z,0.7
2022-08-31T00:46:48.641Z,0.8
2022-08-31T00:47:48.777Z,1.4
2022-08-31T00:48:59.268Z,1.6
2022-08-31T00:49:51.573Z,0.8
2022-08-31T00:50:48.561Z,2.5
2022-08-31T00:51:55.263Z,1.0
2022-08-31T00:52:54.383Z,2.2
2022-08-31T00:53:50.822Z,1.2
2022-08-31T00:54:55.043Z,1.4
2022-08-31T00:55:48.668Z,1.2
2022-08-31T00:56:48.856Z,2.1
2022-08-31T00:57:53.128Z,0.7
2022-08-31T00:58:54.731Z,0.7
2022-08-31T00:59:49.961Z,0.5
2022-08-31T01:00:49.269Z,0.8
2022-08-31T01:01:48.731Z,1.2
2022-08-31T01:02:49.447Z,1.3
2022-08-31T01:03:48.863Z,1.2
2022-08-31T01:04:48.640Z,1.1
2022-08-31T01:05:48.712Z,1.1
2022-08-31T01:06:50.183Z,0.4
2022-08-31T01:07:50.374Z,0.5
2022-08-31T01:08:49.570Z,0.6
2022-08-31T01:11:48.642Z,1.7
2022-08-31T01:12:51.587Z,2.2
2022-08-31T01:13:49.211Z,1.9
2022-08-31T01:14:48.884Z,0.9
2022-08-31T01:15:55.833Z,1.5
2022-08-31T01:16:51.970Z,1.2
2022-08-31T01:17:54.173Z,1.5
2022-08-31T01:18:50.810Z,2.1
2022-08-31T01:20:00.894Z,0.8
2022-08-31T01:20:52.998Z,1.3
2022-08-31T01:22:00.215Z,1.6
2022-08-31T01:23:02.012Z,1.0
2022-08-31T01:24:51.362Z,1.5
2022-08-31T01:25:51.784Z,2.0
2022-08-31T01:26:53.742Z,1.3
2022-08-31T01:27:48.887Z,0.5
2022-08-31T01:28:50.206Z,0.8
2022-08-31T01:29:48.533Z,0.7
2022-08-31T01:31:01.008Z,1.0
2022-08-31T01:31:49.110Z,0.4
2022-08-31T01:32:48.917Z,0.6
2022-08-31T01:33:48.563Z,0.7
2022-08-31T01:34:48.632Z,2.0
2022-08-31T01:35:49.174Z,1.1
2022-08-31T01:37:48.972Z,1.1
2022-08-31T01:38:53.133Z,1.1
2022-08-31T01:39:50.379Z,1.0
2022-08-31T01:40:53.986Z,1.7
2022-08-31T01:41:48.780Z,1.3
2022-08-31T01:43:48.603Z,0.4
2022-08-31T01:44:48.618Z,0.6
2022-08-31T01:45:48.669Z,1.0
2022-08-31T01:46:49.237Z,1.5
2022-08-31T01:47:48.569Z,1.6
2022-08-31T01:48:49.966Z,0.7
2022-08-31T01:49:48.551Z,0.6
2022-08-31T01:50:48.945Z,1.9
2022-08-31T01:53:50.719Z,0.7
2022-08-31T01:54:48.544Z,0.7
2022-08-31T01:55:48.613Z,1.1
2022-08-31T01:56:49.606Z,0.6
2022-08-31T01:57:48.686Z,1.8
2022-08-31T01:58:48.535Z,2.3
2022-08-31T01:59:48.605Z,0.6
2022-08-31T02:00:48.728Z,1.5
2022-08-31T02:01:51.776Z,1.5
2022-08-31T02:02:48.652Z,0.7
2022-08-31T02:03:48.547Z,0.2
2022-08-31T02:04:48.593Z,2.2
2022-08-31T02:05:48.614Z,0.3
2022-08-31T02:06:50.976Z,0.6
2022-08-31T02:07:48.788Z,0.5
2022-08-31T02:08:48.693Z,2.5
2022-08-31T02:09:48.551Z,1.0
2022-08-31T02:10:48.756Z,0.7
2022-08-31T02:11:48.687Z,0.6
2022-08-31T02:12:49.945Z,0.8
2022-08-31T02:13:48.654Z,1.8
2022-08-31T02:14:48.524Z,0.5
2022-08-31T02:15:48.557Z,1.5
2022-08-31T02:16:49.669Z,0.2
2022-08-31T02:17:50.058Z,0.5
2022-08-31T02:18:48.592Z,2.3
2022-08-31T02:19:48.546Z,0.9
2022-08-31T02:20:48.509Z,1.6
2022-08-31T02:21:48.696Z,0.7
2022-08-31T02:22:49.638Z,1.2
2022-08-31T02:24:48.621Z,1.4
2022-08-31T02:25:49.201Z,1.3
2022-08-31T02:26:53.092Z,1.3
2022-08-31T02:27:48.713Z,0.5
2022-08-31T02:28:49.071Z,1.5
2022-08-31T02:29:50.601Z,1.0
2022-08-31T02:30:48.943Z,0.4
2022-08-31T02:31:48.611Z,1.4
2022-08-31T02:32:48.486Z,0.5
2022-08-31T02:33:48.543Z,6.4
2022-08-31T02:34:50.087Z,0.6
2022-08-31T02:35:50.344Z,1.6
2022-08-31T02:36:48.608Z,2.0
2022-08-31T02:37:49.337Z,0.5
2022-08-31T02:38:48.561Z,1.1
2022-08-31T02:39:48.749Z,1.4
2022-08-31T02:40:48.596Z,0.4
2022-08-31T02:41:48.639Z,1.0
2022-08-31T02:42:53.314Z,0.8
2022-08-31T02:43:48.440Z,1.5
2022-08-31T02:44:48.482Z,0.5
2022-08-31T02:45:51.067Z,1.0
2022-08-31T02:46:48.584Z,0.8
2022-08-31T02:47:48.537Z,0.5
2022-08-31T02:48:48.531Z,0.6
2022-08-31T02:49:48.558Z,1.1
2022-08-31T02:50:50.694Z,1.9
2022-08-31T02:53:48.656Z,1.1
2022-08-31T03:00:49.566Z,1.1
2022-08-31T03:02:49.586Z,0.4
2022-08-31T03:03:49.049Z,0.4
2022-08-31T03:04:48.470Z,1.3
2022-08-31T03:05:48.915Z,0.6
2022-08-31T03:06:48.528Z,2.1
2022-08-31T03:07:49.979Z,0.3
2022-08-31T03:08:49.029Z,0.9
2022-08-31T03:09:48.563Z,1.0
2022-08-31T03:10:48.524Z,0.4
2022-08-31T03:11:48.575Z,1.8
2022-08-31T03:12:49.283Z,0.4
2022-08-31T03:13:48.597Z,0.6
2022-08-31T03:14:48.485Z,0.3
2022-08-31T03:15:48.700Z,1.6
2022-08-31T03:16:51.931Z,1.6
2022-08-31T03:17:49.759Z,0.2
2022-08-31T03:18:48.952Z,0.6
2022-08-31T03:19:48.454Z,0.4
2022-08-31T03:20:48.962Z,0.1
2022-08-31T03:21:48.476Z,0.7
2022-08-31T03:22:48.776Z,0.6
2022-08-31T03:23:48.493Z,0.9
2022-08-31T03:24:48.555Z,1.3
2022-08-31T03:25:48.804Z,4.8
2022-08-31T03:26:49.960Z,9.1
2022-08-31T03:27:48.823Z,25.0
2022-08-31T03:28:48.608Z,27.1
2022-08-31T03:29:48.572Z,19.0
2022-08-31T03:30:48.686Z,7.7
2022-08-31T03:31:48.825Z,8.3
2022-08-31T03:32:48.568Z,10.5
2022-08-31T03:33:48.507Z,5.1
2022-08-31T03:34:48.665Z,4.1
2022-08-31T03:35:48.413Z,5.6
2022-08-31T03:36:48.518Z,13.7
2022-08-31T03:37:48.450Z,6.3
2022-08-31T03:38:48.451Z,6.2
2022-08-31T03:39:49.158Z,8.5
2022-08-31T03:40:48.977Z,3.8
2022-08-31T03:41:48.852Z,5.8
2022-08-31T03:42:48.468Z,3.4
2022-08-31T03:43:48.466Z,5.2
2022-08-31T03:44:49.127Z,5.7
2022-08-31T03:45:49.836Z,1.9
2022-08-31T03:46:50.303Z,1.7
2022-08-31T03:47:49.315Z,1.1
2022-08-31T03:48:48.716Z,0.9
2022-08-31T03:49:48.485Z,1.2
2022-08-31T03:50:48.788Z,2.1
2022-08-31T03:51:49.273Z,3.2
2022-08-31T03:53:48.579Z,0.8
2022-08-31T03:55:48.486Z,1.8
2022-08-31T03:56:48.507Z,1.4
2022-08-31T03:57:48.471Z,2.1
2022-08-31T03:58:48.568Z,2.6
2022-08-31T03:59:48.496Z,3.0
2022-08-31T04:00:48.748Z,2.2
2022-08-31T04:01:48.517Z,2.4
2022-08-31T04:02:48.727Z,2.4
2022-08-31T04:03:48.516Z,3.4
2022-08-31T04:04:53.123Z,1.6
2022-08-31T04:05:48.714Z,2.0
2022-08-31T04:07:48.589Z,2.8
2022-08-31T04:08:48.812Z,2.4
2022-08-31T04:09:49.832Z,2.3
2022-08-31T04:10:50.696Z,1.5
2022-08-31T04:14:48.535Z,2.2
2022-08-31T04:15:48.458Z,3.3
2022-08-31T04:16:48.563Z,1.5
2022-08-31T04:18:48.946Z,1.5
2022-08-31T04:19:48.468Z,1.6
2022-08-31T04:20:48.479Z,0.7
2022-08-31T04:21:50.312Z,0.7
2022-08-31T04:22:48.426Z,1.1
2022-08-31T04:23:49.694Z,0.8
2022-08-31T04:24:48.467Z,0.6
2022-08-31T04:25:48.467Z,0.6
2022-08-31T04:26:51.242Z,1.1
2022-08-31T04:27:50.725Z,1.3
2022-08-31T04:33:48.868Z,1.9
2022-08-31T04:34:48.413Z,1.3
2022-08-31T04:35:48.470Z,1.3
2022-08-31T04:36:48.553Z,2.9
2022-08-31T04:37:48.469Z,1.9
2022-08-31T04:38:51.472Z,0.7
2022-08-31T04:39:50.698Z,1.0
2022-08-31T04:40:48.494Z,1.0
2022-08-31T04:41:48.434Z,1.2
2022-08-31T04:42:50.848Z,1.0
2022-08-31T04:43:50.670Z,1.1
2022-08-31T04:44:48.455Z,0.9
2022-08-31T04:45:48.511Z,1.3
2022-08-31T04:46:48.903Z,1.4
2022-08-31T04:47:48.535Z,1.1
2022-08-31T04:48:49.598Z,1.8
2022-08-31T04:49:48.853Z,1.1
2022-08-31T04:50:50.835Z,1.0
2022-08-31T04:51:48.459Z,3.2
2022-08-31T04:53:03.844Z,1.0
2022-08-31T04:53:49.119Z,1.7
2022-08-31T04:54:48.461Z,1.2
2022-08-31T04:55:48.458Z,1.9
2022-08-31T04:56:48.560Z,1.6
2022-08-31T04:57:48.409Z,1.9
2022-08-31T05:00:48.403Z,2.0
2022-08-31T05:01:48.606Z,2.3
2022-08-31T05:02:51.787Z,3.9
2022-08-31T05:03:53.403Z,10.9
2022-08-31T05:07:49.056Z,13.7
2022-08-31T05:09:48.493Z,9.0
2022-08-31T05:10:48.814Z,4.9
2022-08-31T05:12:49.567Z,22.7
2022-08-31T05:13:50.185Z,13.6
2022-08-31T05:14:48.395Z,15.8
2022-08-31T05:15:50.695Z,13.8
2022-08-31T05:16:48.807Z,11.2
2022-08-31T05:17:48.559Z,7.8
2022-08-31T05:18:51.478Z,5.0
2022-08-31T05:20:48.582Z,5.4
2022-08-31T05:21:49.000Z,4.6
2022-08-31T05:22:48.527Z,3.3
2022-08-31T05:23:49.127Z,2.1
2022-08-31T05:24:48.492Z,2.8
2022-08-31T05:25:48.431Z,3.7
2022-08-31T05:27:48.446Z,3.5
2022-08-31T05:28:49.088Z,2.5
2022-08-31T05:29:48.425Z,2.1
2022-08-31T05:30:48.493Z,4.4
2022-08-31T05:31:52.252Z,5.1
2022-08-31T05:32:48.471Z,4.0
2022-08-31T05:33:48.842Z,3.6
2022-08-31T05:34:48.382Z,3.1
2022-08-31T05:35:48.456Z,4.7
2022-08-31T05:36:53.225Z,4.7
2022-08-31T05:37:51.700Z,5.8
2022-08-31T05:38:48.577Z,6.5
2022-08-31T05:39:48.488Z,6.6
2022-08-31T05:40:53.893Z,7.5
2022-08-31T05:41:49.618Z,5.4
2022-08-31T05:42:48.451Z,5.0
2022-08-31T05:43:48.516Z,4.2
2022-08-31T05:44:48.779Z,3.2
2022-08-31T05:45:48.528Z,4.6
2022-08-31T05:46:52.248Z,2.6
2022-08-31T05:47:48.453Z,3.0
2022-08-31T05:48:49.416Z,5.1
2022-08-31T05:51:48.614Z,3.1
2022-08-31T05:52:48.417Z,2.6
2022-08-31T05:53:50.096Z,3.6
2022-08-31T05:54:48.526Z,2.6
2022-08-31T05:55:48.436Z,3.6
2022-08-31T05:56:48.434Z,3.8
2022-08-31T05:57:48.426Z,1.6
2022-08-31T05:58:49.751Z,2.0
2022-08-31T06:00:48.393Z,3.7
2022-08-31T06:02:53.351Z,2.7
2022-08-31T06:03:48.915Z,2.4
2022-08-31T06:04:48.685Z,2.6
2022-08-31T06:05:50.697Z,1.8
2022-08-31T06:06:48.478Z,2.2
2022-08-31T06:08:51.081Z,1.3
2022-08-31T06:09:48.399Z,1.4
2022-08-31T06:10:49.253Z,2.5
2022-08-31T06:11:48.428Z,2.3
2022-08-31T06:12:48.702Z,3.2
2022-08-31T06:13:50.696Z,1.4
2022-08-31T06:15:48.422Z,1.6
2022-08-31T06:17:48.416Z,1.8
2022-08-31T06:19:48.572Z,1.6
2022-08-31T06:20:50.131Z,2.3
2022-08-31T06:21:51.561Z,2.8
2022-08-31T06:24:48.500Z,2.8
2022-08-31T06:25:48.361Z,2.5
2022-08-31T06:26:57.999Z,5.3
2022-08-31T06:28:51.619Z,2.6
2022-08-31T06:29:49.464Z,2.8
2022-08-31T06:30:55.264Z,3.0
2022-08-31T06:31:48.470Z,3.0
2022-08-31T06:33:48.443Z,3.2
2022-08-31T06:34:48.427Z,3.1
2022-08-31T06:35:48.357Z,4.0
2022-08-31T06:36:49.032Z,4.9
2022-08-31T06:37:49.130Z,3.3
2022-08-31T06:38:48.657Z,3.0
2022-08-31T06:39:48.531Z,3.1
2022-08-31T06:40:48.428Z,1.4
2022-08-31T06:42:48.328Z,3.3
2022-08-31T06:43:49.059Z,3.7
2022-08-31T06:44:50.741Z,2.9
2022-08-31T06:45:48.475Z,2.5
2022-08-31T06:46:48.583Z,3.3
2022-08-31T06:48:50.789Z,3.9
2022-08-31T06:49:48.411Z,3.8
2022-08-31T06:50:57.481Z,3.1
2022-08-31T06:51:48.580Z,2.6
2022-08-31T06:52:48.780Z,4.6
2022-08-31T06:53:48.474Z,3.6
2022-08-31T06:54:48.426Z,4.6
2022-08-31T06:55:49.121Z,5.4
2022-08-31T06:56:48.647Z,2.4
2022-08-31T06:58:54.105Z,2.9
2022-08-31T06:59:48.400Z,2.1
2022-08-31T07:00:49.569Z,4.8
2022-08-31T07:01:48.419Z,2.0
2022-08-31T07:02:53.013Z,2.6
2022-08-31T07:03:49.739Z,2.9
2022-08-31T07:04:48.468Z,2.4
2022-08-31T07:05:48.797Z,2.8
2022-08-31T07:06:48.383Z,4.8
2022-08-31T07:07:48.408Z,2.6
2022-08-31T07:08:52.569Z,3.0
2022-08-31T07:09:48.473Z,3.5
2022-08-31T07:10:48.574Z,2.7
2022-08-31T07:13:49.096Z,3.2
2022-08-31T07:14:54.724Z,2.5
2022-08-31T07:15:48.508Z,2.4
2022-08-31T07:16:49.079Z,2.4
2022-08-31T07:17:50.000Z,2.5
2022-08-31T07:18:49.854Z,2.9
2022-08-31T07:19:48.457Z,3.1
2022-08-31T07:20:49.699Z,2.8
2022-08-31T07:21:52.204Z,2.7
2022-08-31T07:22:48.422Z,2.9
2022-08-31T07:23:50.711Z,2.7
2022-08-31T07:24:49.656Z,4.2
2022-08-31T07:28:53.741Z,4.1
2022-08-31T07:30:50.470Z,5.1
2022-08-31T07:31:49.221Z,4.8
2022-08-31T07:32:48.813Z,5.8
2022-08-31T07:33:48.451Z,5.4
2022-08-31T07:35:48.439Z,6.0
2022-08-31T07:37:57.713Z,4.6
2022-08-31T07:40:57.805Z,4.2
2022-08-31T07:43:48.431Z,5.8
2022-08-31T07:44:53.402Z,7.9
2022-08-31T07:45:48.434Z,4.6
2022-08-31T07:46:49.550Z,5.0
2022-08-31T07:47:52.322Z,4.7
2022-08-31T07:48:48.378Z,5.7
2022-08-31T07:49:51.420Z,3.3
2022-08-31T07:50:48.466Z,2.5
2022-08-31T07:51:51.622Z,2.3
2022-08-31T07:52:53.244Z,3.0
2022-08-31T07:57:49.288Z,7.1
2022-08-31T07:58:50.333Z,4.0
2022-08-31T08:00:49.991Z,3.7
2022-08-31T08:03:48.538Z,3.1
2022-08-31T08:04:54.119Z,4.3
2022-08-31T08:05:48.437Z,3.7
2022-08-31T08:07:53.756Z,3.6
2022-08-31T08:09:12.762Z,3.9
2022-08-31T08:12:01.272Z,5.2
2022-08-31T08:16:48.714Z,2.8
2022-08-31T08:17:48.383Z,4.2
2022-08-31T08:18:48.408Z,1.7
2022-08-31T08:20:48.639Z,2.8
2022-08-31T08:21:48.979Z,2.3
2022-08-31T08:22:55.073Z,6.0
2022-08-31T08:23:48.413Z,4.2
2022-08-31T08:24:49.231Z,5.3
2022-08-31T08:27:48.854Z,8.4
2022-08-31T08:28:48.379Z,26.9
2022-08-31T08:29:49.267Z,37.8
2022-08-31T08:30:54.487Z,14.5
2022-08-31T08:32:48.379Z,9.0
2022-08-31T08:33:48.347Z,4.2
2022-08-31T08:34:48.387Z,5.2
2022-08-31T08:36:49.409Z,4.5
2022-08-31T08:37:57.699Z,8.0
2022-08-31T08:38:51.993Z,2.6
2022-08-31T08:39:49.283Z,2.6
2022-08-31T08:40:49.955Z,2.0
2022-08-31T08:41:50.740Z,1.7
2022-08-31T08:42:48.314Z,2.8
2022-08-31T08:43:53.100Z,2.7
2022-08-31T08:44:48.539Z,2.7
2022-08-31T08:45:52.083Z,3.0
2022-08-31T08:46:52.918Z,2.5
2022-08-31T08:47:50.128Z,2.5
2022-08-31T08:48:55.563Z,2.3
2022-08-31T08:49:54.764Z,7.6
2022-08-31T08:50:48.599Z,7.6
2022-08-31T08:51:53.117Z,5.5
2022-08-31T08:52:48.990Z,5.5
2022-08-31T08:53:55.091Z,5.9
2022-08-31T08:54:50.598Z,5.9
2022-08-31T08:55:48.351Z,6.7
2022-08-31T08:56:49.381Z,6.6
2022-08-31T08:57:50.158Z,7.0
2022-08-31T08:58:48.354Z,6.7
2022-08-31T08:59:51.247Z,5.5
2022-08-31T09:00:54.034Z,6.3
2022-08-31T09:01:51.921Z,6.3
2022-08-31T09:02:58.571Z,3.0
2022-08-31T09:05:00.875Z,3.6
2022-08-31T09:06:00.015Z,6.1
2022-08-31T09:06:54.766Z,3.4
2022-08-31T09:07:56.971Z,4.7
2022-08-31T09:09:08.822Z,5.9
2022-08-31T09:09:54.655Z,3.7
2022-08-31T09:10:59.031Z,5.6
2022-08-31T09:11:59.328Z,4.5
2022-08-31T09:13:02.798Z,4.9
2022-08-31T09:13:56.233Z,6.3
2022-08-31T09:15:03.853Z,6.0
2022-08-31T09:16:04.770Z,5.4
2022-08-31T09:17:03.184Z,2.7
2022-08-31T09:18:02.914Z,2.9
2022-08-31T09:18:54.681Z,3.1
2022-08-31T09:21:06.252Z,2.7
2022-08-31T09:24:52.391Z,5.1
2022-08-31T09:26:59.679Z,6.4
2022-08-31T09:27:57.610Z,6.4
2022-08-31T09:28:53.033Z,6.4
2022-08-31T09:29:49.163Z,7.2
2022-08-31T09:32:57.635Z,8.3
2022-08-31T09:35:01.286Z,5.8
2022-08-31T09:35:53.588Z,5.8
2022-08-31T09:36:48.310Z,5.8
2022-08-31T09:38:02.442Z,6.9
2022-08-31T09:38:49.066Z,6.9
2022-08-31T09:39:50.292Z,4.8
2022-08-31T09:40:49.981Z,6.9
2022-08-31T09:41:50.425Z,6.1
2022-08-31T09:42:59.018Z,7.5
2022-08-31T09:43:48.532Z,7.5
2022-08-31T09:44:50.830Z,6.5
2022-08-31T09:46:05.178Z,4.5
2022-08-31T09:46:51.608Z,4.5
2022-08-31T09:48:52.235Z,2.3
2022-08-31T09:49:56.828Z,5.1
2022-08-31T09:50:48.805Z,4.5
2022-08-31T09:51:49.426Z,5.1
2022-08-31T09:52:57.587Z,4.7
2022-08-31T09:53:58.103Z,4.4
2022-08-31T09:59:51.772Z,4.0
2022-08-31T10:00:51.262Z,5.5
2022-08-31T10:03:49.776Z,12.3
2022-08-31T10:05:50.702Z,13.3
2022-08-31T10:06:55.485Z,26.5
2022-08-31T10:09:59.586Z,68.5
2022-08-31T10:11:52.309Z,62.0
2022-08-31T10:13:58.932Z,56.4
2022-08-31T10:14:55.857Z,34.1
2022-08-31T10:15:53.807Z,21.8
2022-08-31T10:16:54.501Z,34.9
2022-08-31T10:25:58.547Z,20.8
2022-08-31T10:28:54.755Z,20.3
2022-08-31T10:30:59.827Z,17.5
2022-08-31T10:31:52.995Z,18.0
2022-08-31T10:32:51.794Z,14.7
2022-08-31T10:34:01.190Z,19.3
2022-08-31T10:35:07.130Z,19.2
2022-08-31T10:35:52.748Z,19.2
2022-08-31T10:36:53.052Z,21.8
2022-08-31T10:38:51.707Z,23.5
2022-08-31T10:39:54.144Z,26.0
2022-08-31T10:41:51.608Z,27.7
2022-08-31T10:44:58.009Z,25.7
2022-08-31T10:45:51.305Z,27.2
2022-08-31T10:46:50.520Z,25.6
2022-08-31T10:47:50.945Z,24.8
2022-08-31T10:51:51.446Z,20.4
2022-08-31T10:53:02.815Z,18.0
2022-08-31T10:54:05.288Z,17.4
2022-08-31T10:57:56.203Z,19.5
2022-08-31T10:59:56.178Z,18.3
2022-08-31T11:01:55.004Z,15.1
2022-08-31T11:03:04.970Z,12.5
2022-08-31T11:04:06.170Z,14.2
2022-08-31T11:05:01.371Z,14.2
2022-08-31T11:05:51.193Z,15.4
2022-08-31T11:07:00.682Z,18.1
2022-08-31T11:07:58.855Z,19.5
2022-08-31T11:08:52.299Z,20.2
2022-08-31T11:09:55.199Z,16.0
2022-08-31T11:10:52.062Z,16.0
2022-08-31T11:12:57.614Z,11.7
2022-08-31T11:15:09.802Z,16.9
2022-08-31T11:17:03.975Z,15.9
2022-08-31T11:18:06.158Z,14.2
2022-08-31T11:19:09.326Z,10.9
2022-08-31T11:20:03.928Z,10.9
2022-08-31T11:20:57.936Z,16.8
2022-08-31T11:23:06.289Z,12.2
2022-08-31T11:26:07.324Z,15.0
2022-08-31T11:26:57.300Z,15.0
2022-08-31T11:27:57.296Z,13.0
2022-08-31T11:29:57.559Z,17.9
2022-08-31T11:31:49.993Z,13.3
2022-08-31T11:34:06.103Z,15.1
2022-08-31T11:34:53.680Z,15.0
2022-08-31T11:36:07.339Z,18.3
2022-08-31T11:36:51.700Z,15.5
2022-08-31T11:37:57.298Z,21.6
2022-08-31T11:39:51.513Z,18.6
2022-08-31T11:41:51.145Z,17.1
2022-08-31T11:47:48.443Z,14.9
2022-08-31T11:48:56.830Z,14.6
2022-08-31T11:49:51.143Z,15.1
2022-08-31T11:50:56.855Z,17.5
2022-08-31T11:51:48.506Z,15.3
2022-08-31T11:53:53.070Z,11.2
2022-08-31T11:55:51.816Z,13.0
2022-08-31T11:58:10.014Z,10.7
2022-08-31T11:58:53.528Z,10.7
2022-08-31T11:59:49.642Z,10.6
2022-08-31T12:00:52.756Z,10.5
2022-08-31T12:01:48.189Z,12.6
2022-08-31T12:03:09.716Z,22.1
2022-08-31T12:04:58.853Z,16.6
2022-08-31T12:08:56.349Z,19.0
2022-08-31T12:10:06.204Z,14.8
2022-08-31T12:11:02.976Z,17.2
2022-08-31T12:12:57.281Z,13.8
2022-08-31T12:13:52.105Z,21.9
2022-08-31T12:18:05.804Z,19.9
2022-08-31T12:19:05.429Z,20.0
2022-08-31T12:20:02.310Z,18.9
2022-08-31T12:21:08.897Z,21.3
2022-08-31T12:23:07.201Z,16.1
2022-08-31T12:23:55.649Z,16.4
2022-08-31T12:24:54.390Z,18.3
2022-08-31T12:26:01.635Z,24.9
2022-08-31T12:27:56.498Z,13.9
2022-08-31T12:35:49.796Z,17.3
2022-08-31T12:36:48.961Z,16.4
2022-08-31T12:38:57.453Z,17.3
2022-08-31T12:39:48.113Z,19.8
2022-08-31T12:41:53.448Z,19.2
2022-08-31T12:47:03.661Z,23.0
2022-08-31T12:48:02.925Z,15.7
2022-08-31T12:49:06.164Z,18.0
2022-08-31T12:49:58.015Z,21.7
2022-08-31T12:52:57.887Z,14.8
2022-08-31T12:55:55.059Z,16.0
2022-08-31T12:57:01.401Z,17.4
2022-08-31T13:00:03.716Z,23.0
2022-08-31T13:00:48.356Z,24.5
2022-08-31T13:01:50.959Z,21.8
2022-08-31T13:02:52.172Z,19.8
2022-08-31T13:03:54.318Z,25.9
2022-08-31T13:04:49.701Z,19.9
2022-08-31T13:06:02.609Z,17.7
2022-08-31T13:06:49.522Z,21.2
2022-08-31T13:07:48.379Z,19.9
2022-08-31T13:08:51.511Z,21.4
2022-08-31T13:09:48.236Z,16.8
2022-08-31T13:10:48.219Z,18.9
2022-08-31T13:11:53.612Z,26.5
2022-08-31T13:12:52.746Z,18.6
2022-08-31T13:13:48.087Z,15.0
2022-08-31T13:15:48.310Z,17.6
2022-08-31T13:16:51.539Z,18.4
2022-08-31T13:17:48.235Z,22.4
2022-08-31T13:18:48.474Z,18.0
2022-08-31T13:19:52.396Z,18.1
2022-08-31T13:20:53.726Z,22.0
2022-08-31T13:21:55.367Z,19.7
2022-08-31T13:22:57.911Z,18.4
2022-08-31T13:23:48.781Z,18.8
2022-08-31T13:26:01.073Z,16.9
2022-08-31T13:26:57.430Z,17.5
2022-08-31T13:28:52.752Z,15.4
2022-08-31T13:29:49.633Z,22.4
2022-08-31T13:31:02.784Z,22.3
2022-08-31T13:35:50.985Z,19.6
2022-08-31T13:36:55.164Z,22.5
2022-08-31T13:38:04.010Z,21.0
2022-08-31T13:40:52.810Z,24.0
2022-08-31T13:41:56.597Z,20.7
2022-08-31T13:42:56.589Z,23.6
2022-08-31T13:44:55.095Z,21.3
2022-08-31T13:45:58.755Z,17.0
2022-08-31T13:47:00.336Z,20.6
2022-08-31T13:47:57.279Z,26.5
2022-08-31T13:49:01.434Z,19.3
2022-08-31T13:51:48.605Z,18.7
2022-08-31T13:53:56.733Z,19.1
2022-08-31T13:55:49.676Z,17.2
2022-08-31T13:57:59.947Z,22.1
2022-08-31T13:58:48.555Z,20.7
2022-08-31T13:59:48.583Z,17.0
2022-08-31T14:00:50.474Z,22.0
2022-08-31T14:01:56.687Z,22.4
2022-08-31T14:02:48.117Z,19.0
2022-08-31T14:03:57.568Z,17.8
2022-08-31T14:04:58.550Z,25.2
2022-08-31T14:05:57.481Z,19.4
2022-08-31T14:06:52.390Z,17.5
2022-08-31T14:07:57.714Z,24.2
2022-08-31T14:08:50.142Z,14.6
2022-08-31T14:09:50.154Z,19.2
2022-08-31T14:10:49.893Z,21.6
2022-08-31T14:11:53.536Z,15.4
2022-08-31T14:13:50.741Z,18.6
2022-08-31T14:18:25.064Z,21.9
2022-08-31T14:19:49.664Z,16.6
2022-08-31T14:25:48.157Z,16.8
2022-08-31T14:31:52.604Z,20.2
2022-08-31T14:32:48.071Z,18.3
2022-08-31T14:33:56.170Z,15.5
2022-08-31T14:35:49.348Z,14.2
2022-08-31T14:42:48.120Z,21.8
2022-08-31T14:44:56.918Z,13.9
2022-08-31T14:45:48.118Z,17.2
2022-08-31T14:48:48.106Z,17.3
2022-08-31T14:49:49.314Z,12.3
2022-08-31T14:52:53.123Z,15.3
2022-08-31T14:55:48.329Z,17.6
2022-08-31T14:57:55.658Z,16.6
2022-08-31T14:58:49.963Z,20.6
2022-08-31T15:00:53.138Z,19.0
2022-08-31T15:01:50.806Z,16.0
2022-08-31T15:02:49.241Z,11.0
2022-08-31T15:03:48.576Z,16.6
2022-08-31T15:04:48.651Z,15.4
2022-08-31T15:05:50.210Z,16.9
2022-08-31T15:06:54.573Z,13.4
2022-08-31T15:07:49.315Z,18.3
2022-08-31T15:12:49.019Z,15.7
2022-08-31T15:15:47.999Z,16.1
2022-08-31T15:17:49.381Z,12.9
2022-08-31T15:18:48.123Z,12.1
2022-08-31T15:19:50.671Z,14.8
2022-08-31T15:22:02.938Z,15.3
2022-08-31T15:22:48.911Z,13.6
2022-08-31T15:24:48.230Z,17.6
2022-08-31T15:26:48.903Z,16.4
2022-08-31T15:27:48.547Z,12.7
2022-08-31T15:28:52.688Z,16.4
2022-08-31T15:29:51.912Z,16.2
2022-08-31T15:30:48.026Z,11.3
2022-08-31T15:31:51.309Z,16.4
2022-08-31T15:33:49.697Z,12.2
2022-08-31T15:34:58.365Z,11.4
2022-08-31T15:35:48.005Z,14.4
2022-08-31T15:36:55.250Z,14.7
2022-08-31T15:37:53.221Z,13.2
2022-08-31T15:38:50.052Z,11.9
2022-08-31T15:41:50.336Z,13.1
2022-08-31T15:43:49.224Z,11.5
2022-08-31T15:45:48.095Z,15.1
2022-08-31T15:46:57.946Z,11.0
2022-08-31T15:48:48.288Z,16.4
2022-08-31T15:49:47.975Z,10.9
2022-08-31T15:50:59.080Z,12.4
2022-08-31T15:54:11.644Z,13.7
2022-08-31T15:55:50.023Z,14.7
2022-08-31T15:57:48.251Z,12.7
2022-08-31T15:58:56.848Z,9.8
2022-08-31T16:02:48.203Z,12.0
2022-08-31T16:03:55.807Z,9.0
2022-08-31T16:04:50.785Z,13.2
2022-08-31T16:06:49.533Z,14.0
2022-08-31T16:10:48.638Z,9.5
2022-08-31T16:12:50.620Z,11.3
2022-08-31T16:13:51.367Z,9.9
2022-08-31T16:15:51.721Z,11.2
2022-08-31T16:16:50.425Z,14.9
2022-08-31T16:17:47.997Z,14.4
2022-08-31T16:18:51.964Z,15.2
2022-08-31T16:19:48.640Z,14.3
2022-08-31T16:20:48.157Z,13.7
2022-08-31T16:21:49.178Z,13.0
2022-08-31T16:22:48.512Z,14.6
2022-08-31T16:23:50.069Z,12.4
2022-08-31T16:24:49.093Z,14.1
2022-08-31T16:25:49.364Z,11.1
2022-08-31T16:26:51.252Z,13.3
2022-08-31T16:27:47.999Z,14.5
2022-08-31T16:28:48.039Z,15.7
2022-08-31T16:29:51.034Z,15.3
2022-08-31T16:30:48.580Z,11.9
2022-08-31T16:31:48.151Z,16.1
2022-08-31T16:32:52.119Z,15.7
2022-08-31T16:33:49.286Z,9.6
2022-08-31T16:34:48.114Z,13.5
2022-08-31T16:35:48.005Z,14.6
2022-08-31T16:36:50.624Z,20.1
2022-08-31T16:37:47.967Z,14.8
2022-08-31T16:38:48.974Z,12.0
2022-08-31T16:42:47.932Z,17.8
2022-08-31T16:44:48.407Z,16.1
2022-08-31T16:46:48.175Z,12.6
2022-08-31T16:48:57.709Z,14.7
2022-08-31T16:50:49.122Z,12.8
2022-08-31T16:53:50.898Z,12.1
2022-08-31T16:55:48.062Z,13.5
2022-08-31T16:56:50.373Z,13.7
2022-08-31T17:00:48.078Z,13.2
2022-08-31T17:02:47.957Z,16.9
2022-08-31T17:03:50.531Z,9.0
2022-08-31T17:04:52.908Z,11.5
2022-08-31T17:05:52.728Z,8.7
2022-08-31T17:06:49.552Z,11.7
2022-08-31T17:07:47.936Z,16.3
2022-08-31T17:08:48.315Z,14.4
2022-08-31T17:12:48.477Z,17.1
2022-08-31T17:14:52.913Z,26.4
2022-08-31T17:17:48.149Z,26.5
2022-08-31T17:19:48.847Z,16.3
2022-08-31T17:21:50.274Z,15.8
2022-08-31T17:24:48.750Z,13.6
2022-08-31T17:33:47.987Z,14.2
2022-08-31T17:35:47.909Z,12.2
2022-08-31T17:37:49.112Z,13.3
2022-08-31T17:38:48.855Z,11.7
2022-08-31T17:40:48.051Z,9.5
2022-08-31T17:41:50.317Z,11.0
2022-08-31T17:42:49.867Z,12.7
2022-08-31T17:43:47.893Z,10.7
2022-08-31T17:44:50.471Z,14.7
2022-08-31T17:45:49.422Z,10.6
2022-08-31T17:50:49.654Z,11.5
2022-08-31T17:53:47.876Z,21.3
2022-08-31T17:54:48.614Z,25.8
2022-08-31T17:55:56.595Z,20.8
2022-08-31T17:57:48.579Z,26.0
2022-08-31T18:02:49.372Z,15.2
2022-08-31T18:03:47.889Z,12.0
2022-08-31T18:06:51.769Z,12.1
2022-08-31T18:11:49.018Z,9.0
2022-08-31T18:12:48.132Z,14.0
2022-08-31T18:14:48.052Z,9.9
2022-08-31T18:16:49.760Z,13.5
2022-08-31T18:17:48.192Z,12.0
2022-08-31T18:18:50.348Z,10.5
2022-08-31T18:19:48.431Z,11.7
2022-08-31T18:21:48.131Z,15.6
2022-08-31T18:25:48.989Z,17.7
2022-08-31T18:28:49.112Z,20.3
2022-08-31T18:35:50.817Z,16.0
2022-08-31T18:36:48.419Z,18.3
2022-08-31T18:37:48.309Z,23.7
2022-08-31T18:38:47.974Z,28.5
2022-08-31T18:39:59.613Z,27.6
2022-08-31T18:40:57.374Z,20.8
2022-08-31T18:41:57.673Z,20.7
2022-08-31T18:42:57.403Z,18.5
2022-08-31T18:43:57.198Z,18.4
2022-08-31T18:44:57.203Z,22.6
2022-08-31T18:45:50.545Z,19.9
2022-08-31T18:46:51.353Z,16.7
2022-08-31T18:48:13.972Z,15.1
2022-08-31T18:48:54.293Z,17.0
2022-08-31T18:49:48.785Z,20.3
2022-08-31T18:50:49.403Z,17.2
2022-08-31T18:51:47.896Z,19.6
2022-08-31T18:52:49.626Z,18.4
2022-08-31T18:55:47.892Z,21.8
2022-08-31T18:57:49.110Z,16.7
2022-08-31T19:00:56.275Z,19.3